Flight Track Log - Related Links

Times and Time Zones

All times are in EDT time to prevent confusion due to time zone crossing. See the GJS3649 flight status page for this flight to view local times or setup timezone preferences in your user account.

Time Position Orientation Groundspeed Altitude Reporting Facility
EDT Latitude Longitude Course Direction KTS MPH feet Rate Location/Type
Sat 04:36:08 PM 39.8972 -84.2472 330° Northwest 128 147 1,800  Level Indianapolis Center
Sat 04:37:01 PM 39.8953 -84.2875 266° West 151 174 3,600 2,474 Climbing Indianapolis Center
Sat 04:38:02 PM 39.9361 -84.3308 321° Northwest 243 280 6,500 2,410 Climbing Indianapolis Center
Sat 04:39:00 PM 40.0733 -84.5068 326° Northwest  Level Estimated
Sat 04:39:03 PM 39.9875 -84.3772 325° Northwest 227 261 8,500  Level Indianapolis Center
Sat 04:40:00 PM 40.1395 -84.5352 342° North  Level FlightAware Approximate
Sat 04:40:05 PM 40.0478 -84.4242 329° Northwest 242 278 11,100  Level Indianapolis Center
Sat 04:41:00 PM 40.1815 -84.6081 330° Northwest  Level Estimated
Sat 04:41:06 PM 40.1189 -84.4828 328° Northwest 250 288 14,700  Level Indianapolis Center
Sat 04:42:07 PM 40.1819 -84.5328 329° Northwest 259 298 17,000 2,537 Climbing Indianapolis Center
Sat 04:43:09 PM 40.2472 -84.5850 329° Northwest 272 313 19,900 2,390 Climbing Indianapolis Center
Sat 04:44:10 PM 40.3122 -84.6386 328° Northwest 275 316 21,900 1,033 Climbing Indianapolis Center
Sat 04:45:11 PM 40.3803 -84.6928 329° Northwest 282 325 22,000 49 Climbing Indianapolis Center
Sat 04:46:13 PM 40.4531 -84.7536 328° Northwest 303 349 22,000  Level Indianapolis Center
Sat 04:47:14 PM 40.5289 -84.8144 329° Northwest 316 364 22,000  Level Indianapolis Center
Sat 04:48:15 PM 40.6031 -84.8747 328° Northwest 315 362 22,000  Level Indianapolis Center
Sat 04:49:17 PM 40.6850 -84.9422 328° Northwest 308 354 22,000  Level Indianapolis Center
Sat 04:50:18 PM 40.7553 -85.0039 326° Northwest 306 352 22,000  Level Indianapolis Center
Sat 04:51:20 PM 40.8031 -85.0936 305° West 301 346 22,000  Level Indianapolis Center
Sat 04:52:21 PM 40.8508 -85.1833 305° West 300 345 22,000  Level Indianapolis Center
Sat 04:53:23 PM 40.8972 -85.2736 304° West 300 345 22,000  Level Indianapolis Center
Sat 04:54:24 PM 40.9422 -85.3603 305° West 292 336 22,000  Level Indianapolis Center
Sat 04:55:25 PM 40.9958 -85.4650 304° West 289 333 22,000  Level Indianapolis Center
Sat 04:56:27 PM 41.0392 -85.5514 304° West 284 327 22,000  Level Indianapolis Center
Sat 04:57:28 PM 41.0842 -85.6389 304° West 288 331 22,000  Level Indianapolis Center
Sat 04:58:30 PM 41.1303 -85.7297 304° West 295 339 22,000  Level Indianapolis Center
Sat 04:59:31 PM 41.1753 -85.8178 304° West 292 336 22,000  Level Indianapolis Center
Sat 05:00:33 PM 41.2186 -85.9058 303° West 288 331 22,000  Level Indianapolis Center
Sat 05:01:34 PM 41.2639 -85.9933 305° West 288 331 22,000  Level Indianapolis Center
Sat 05:02:36 PM 41.2928 -86.1106 288° West 287 330 22,000 -439 Level Indianapolis Center
Sat 05:03:37 PM 41.3042 -86.2131 278° West 284 327 21,100 -1,027 Descending Indianapolis Center
Sat 05:05:02 PM 41.3164 -86.3258 278° West 245 282 19,500 -1,233 Descending Chicago Center
Sat 05:06:03 PM 41.3267 -86.4144 279° West 243 280 18,100 -1,463 Descending Chicago Center
Sat 05:07:05 PM 41.3403 -86.5225 280° West 246 283 16,500 -1,355 Descending Chicago Center
Sat 05:08:07 PM 41.3808 -86.5919 308° West 251 289 15,300 -1,073 Descending Chicago Center
Sat 05:09:08 PM 41.4519 -86.6444 331° Northwest 289 333 14,300 -976 Descending Chicago Center
Sat 05:10:10 PM 41.5258 -86.6992 331° Northwest 302 348 13,300 -968 Descending Chicago Center
Sat 05:11:12 PM 41.6067 -86.7578 332° Northwest 316 364 12,300 -677 Descending Chicago Center
Sat 05:12:14 PM 41.6897 -86.7975 340° North 323 372 11,900 -585 Descending Chicago Center
Sat 05:13:15 PM 41.7775 -86.8103 354° North 322 371 11,100 -439 Descending Chicago Center
Sat 05:14:17 PM 41.8794 -86.8475 345° North 323 372 11,000 -48 Descending Chicago Center
Sat 05:15:19 PM 41.9261 -86.9356 305° West 305 351 11,000  Level Chicago Center
Sat 05:16:21 PM 41.9592 -87.0353 294° West 300 345 11,000 -585 Level Chicago Center
Sat 05:17:22 PM 41.9800 -87.1239 288° West 275 316 9,800 -1,268 Descending Chicago Center
Sat 05:18:24 PM 41.9831 -87.2178 273° West 255 293 8,400 -1,355 Descending Chicago Center
Sat 05:19:26 PM 41.9839 -87.3147 271° West 260 299 7,000 -677 Descending Chicago Center
Sat 05:20:28 PM 41.9831 -87.4172 269° West 234 269 7,000 -49 Level Chicago Center
Sat 05:21:29 PM 41.9828 -87.4922 270° West 205 236 6,900 -949 Descending Chicago Center
Sat 05:23:25 PM 41.9833 -87.6500 270° West 209 241 4,200 -1,288 Descending Chicago TRACON
Sat 05:24:26 PM 41.9833 -87.7333 270° West 202 232 3,100 -1,041 Descending Chicago TRACON
Sat 05:25:26 PM 41.9833 -87.7833 270° West 169 194 2,100 -850 Descending Chicago TRACON
Sat 05:26:26 PM 41.9833 -87.8333 270° West 121 139 1,400 -700 Descending Chicago TRACON

Login

Don't have an account? Register now (free) for customized features, flight alerts, and more!